sensor_id;sensor_type;location;lat;lon;timestamp;P1;durP1;ratioP1;P2;durP2;ratioP2
36353;SDS011;22383;51.114;13.666;2024-01-11T00:02:02;68.18;;;22.88;;
36353;SDS011;22383;51.114;13.666;2024-01-11T00:04:30;70.45;;;21.23;;
36353;SDS011;22383;51.114;13.666;2024-01-11T00:06:57;57.28;;;22.88;;
36353;SDS011;22383;51.114;13.666;2024-01-11T00:09:24;71.25;;;24.42;;
36353;SDS011;22383;51.114;13.666;2024-01-11T00:11:51;57.28;;;23.85;;
36353;SDS011;22383;51.114;13.666;2024-01-11T00:14:18;62.05;;;23.17;;
36353;SDS011;22383;51.114;13.666;2024-01-11T00:16:46;60.63;;;22.10;;
36353;SDS011;22383;51.114;13.666;2024-01-11T00:19:13;49.35;;;19.25;;
36353;SDS011;22383;51.114;13.666;2024-01-11T00:21:40;63.50;;;18.25;;
36353;SDS011;22383;51.114;13.666;2024-01-11T00:24:08;41.30;;;16.70;;
36353;SDS011;22383;51.114;13.666;2024-01-11T00:26:35;39.03;;;13.82;;
36353;SDS011;22383;51.114;13.666;2024-01-11T00:29:03;46.83;;;17.92;;
36353;SDS011;22383;51.114;13.666;2024-01-11T00:33:58;38.47;;;16.02;;
36353;SDS011;22383;51.114;13.666;2024-01-11T00:36:26;47.35;;;17.17;;
36353;SDS011;22383;51.114;13.666;2024-01-11T00:38:55;49.13;;;16.52;;
36353;SDS011;22383;51.114;13.666;2024-01-11T00:41:24;45.25;;;17.08;;
36353;SDS011;22383;51.114;13.666;2024-01-11T00:43:52;56.75;;;19.38;;
36353;SDS011;22383;51.114;13.666;2024-01-11T00:46:19;51.60;;;19.15;;
36353;SDS011;22383;51.114;13.666;2024-01-11T00:48:46;65.97;;;20.92;;
36353;SDS011;22383;51.114;13.666;2024-01-11T00:51:14;48.17;;;18.35;;
36353;SDS011;22383;51.114;13.666;2024-01-11T00:53:42;57.85;;;17.98;;
36353;SDS011;22383;51.114;13.666;2024-01-11T00:56:16;50.75;;;16.83;;
36353;SDS011;22383;51.114;13.666;2024-01-11T00:58:44;45.08;;;17.73;;
36353;SDS011;22383;51.114;13.666;2024-01-11T01:01:11;52.88;;;17.08;;
36353;SDS011;22383;51.114;13.666;2024-01-11T01:03:39;35.30;;;16.30;;
36353;SDS011;22383;51.114;13.666;2024-01-11T01:08:34;59.38;;;20.52;;
36353;SDS011;22383;51.114;13.666;2024-01-11T01:11:01;52.20;;;20.85;;
36353;SDS011;22383;51.114;13.666;2024-01-11T01:13:28;72.45;;;23.40;;
36353;SDS011;22383;51.114;13.666;2024-01-11T01:15:55;73.22;;;23.08;;
36353;SDS011;22383;51.114;13.666;2024-01-11T01:18:23;52.35;;;20.60;;
36353;SDS011;22383;51.114;13.666;2024-01-11T01:20:50;47.70;;;19.17;;
36353;SDS011;22383;51.114;13.666;2024-01-11T01:23:17;53.60;;;20.35;;
36353;SDS011;22383;51.114;13.666;2024-01-11T01:25:45;56.00;;;18.52;;
36353;SDS011;22383;51.114;13.666;2024-01-11T01:28:12;47.78;;;19.15;;
36353;SDS011;22383;51.114;13.666;2024-01-11T01:30:39;50.00;;;19.33;;
36353;SDS011;22383;51.114;13.666;2024-01-11T01:33:06;47.58;;;18.83;;
36353;SDS011;22383;51.114;13.666;2024-01-11T01:35:34;52.67;;;18.15;;
36353;SDS011;22383;51.114;13.666;2024-01-11T01:38:02;55.30;;;19.65;;
36353;SDS011;22383;51.114;13.666;2024-01-11T01:40:30;51.65;;;18.30;;
36353;SDS011;22383;51.114;13.666;2024-01-11T01:42:58;46.88;;;17.58;;
36353;SDS011;22383;51.114;13.666;2024-01-11T01:45:26;53.72;;;20.05;;
36353;SDS011;22383;51.114;13.666;2024-01-11T01:47:55;46.33;;;17.60;;
36353;SDS011;22383;51.114;13.666;2024-01-11T01:55:18;37.47;;;15.43;;
36353;SDS011;22383;51.114;13.666;2024-01-11T01:57:47;44.22;;;16.00;;
36353;SDS011;22383;51.114;13.666;2024-01-11T02:00:15;49.13;;;16.40;;
36353;SDS011;22383;51.114;13.666;2024-01-11T02:02:43;38.63;;;15.25;;
36353;SDS011;22383;51.114;13.666;2024-01-11T02:05:14;38.70;;;15.07;;
36353;SDS011;22383;51.114;13.666;2024-01-11T02:07:44;39.95;;;15.27;;
36353;SDS011;22383;51.114;13.666;2024-01-11T02:10:11;43.33;;;16.75;;
36353;SDS011;22383;51.114;13.666;2024-01-11T02:12:39;52.50;;;19.80;;
36353;SDS011;22383;51.114;13.666;2024-01-11T02:15:06;63.00;;;20.33;;
36353;SDS011;22383;51.114;13.666;2024-01-11T02:17:34;50.33;;;18.27;;
36353;SDS011;22383;51.114;13.666;2024-01-11T02:20:01;62.53;;;22.77;;
36353;SDS011;22383;51.114;13.666;2024-01-11T02:22:38;71.28;;;23.55;;
36353;SDS011;22383;51.114;13.666;2024-01-11T02:25:07;61.50;;;25.63;;
36353;SDS011;22383;51.114;13.666;2024-01-11T02:30:12;52.20;;;20.25;;
36353;SDS011;22383;51.114;13.666;2024-01-11T02:32:40;66.10;;;21.67;;
36353;SDS011;22383;51.114;13.666;2024-01-11T02:35:07;64.85;;;22.02;;
36353;SDS011;22383;51.114;13.666;2024-01-11T02:37:36;61.50;;;20.98;;
36353;SDS011;22383;51.114;13.666;2024-01-11T02:40:09;52.95;;;19.83;;
36353;SDS011;22383;51.114;13.666;2024-01-11T02:42:37;51.70;;;17.67;;
36353;SDS011;22383;51.114;13.666;2024-01-11T02:45:04;42.30;;;15.75;;
36353;SDS011;22383;51.114;13.666;2024-01-11T02:47:32;49.67;;;16.33;;
36353;SDS011;22383;51.114;13.666;2024-01-11T02:49:59;44.42;;;16.17;;
36353;SDS011;22383;51.114;13.666;2024-01-11T02:52:27;37.80;;;15.27;;
36353;SDS011;22383;51.114;13.666;2024-01-11T02:54:54;49.03;;;17.23;;
36353;SDS011;22383;51.114;13.666;2024-01-11T02:57:21;50.70;;;17.80;;
36353;SDS011;22383;51.114;13.666;2024-01-11T02:59:49;41.47;;;16.58;;
36353;SDS011;22383;51.114;13.666;2024-01-11T03:02:16;50.50;;;17.02;;
36353;SDS011;22383;51.114;13.666;2024-01-11T03:04:44;46.13;;;18.40;;
36353;SDS011;22383;51.114;13.666;2024-01-11T03:07:11;66.18;;;21.95;;
36353;SDS011;22383;51.114;13.666;2024-01-11T03:09:38;63.65;;;22.10;;
36353;SDS011;22383;51.114;13.666;2024-01-11T03:12:05;72.05;;;23.98;;
36353;SDS011;22383;51.114;13.666;2024-01-11T03:14:33;56.83;;;21.27;;
36353;SDS011;22383;51.114;13.666;2024-01-11T03:17:00;42.63;;;17.77;;
36353;SDS011;22383;51.114;13.666;2024-01-11T03:19:29;65.95;;;21.88;;
36353;SDS011;22383;51.114;13.666;2024-01-11T03:21:56;63.05;;;23.48;;
36353;SDS011;22383;51.114;13.666;2024-01-11T03:24:23;61.22;;;21.98;;
36353;SDS011;22383;51.114;13.666;2024-01-11T03:26:50;57.83;;;22.58;;
36353;SDS011;22383;51.114;13.666;2024-01-11T03:29:17;63.28;;;25.75;;
36353;SDS011;22383;51.114;13.666;2024-01-11T03:31:45;63.25;;;23.52;;
36353;SDS011;22383;51.114;13.666;2024-01-11T03:34:12;69.53;;;23.40;;
36353;SDS011;22383;51.114;13.666;2024-01-11T03:36:40;72.17;;;24.63;;
36353;SDS011;22383;51.114;13.666;2024-01-11T03:39:07;74.90;;;26.17;;
36353;SDS011;22383;51.114;13.666;2024-01-11T03:41:34;78.82;;;25.13;;
36353;SDS011;22383;51.114;13.666;2024-01-11T03:44:02;60.03;;;24.23;;
36353;SDS011;22383;51.114;13.666;2024-01-11T03:46:29;81.90;;;26.92;;
36353;SDS011;22383;51.114;13.666;2024-01-11T03:48:56;81.95;;;25.92;;
36353;SDS011;22383;51.114;13.666;2024-01-11T03:51:24;83.05;;;26.75;;
36353;SDS011;22383;51.114;13.666;2024-01-11T03:53:51;71.90;;;26.02;;
36353;SDS011;22383;51.114;13.666;2024-01-11T03:56:18;89.32;;;28.02;;
36353;SDS011;22383;51.114;13.666;2024-01-11T03:58:46;82.93;;;28.97;;
36353;SDS011;22383;51.114;13.666;2024-01-11T04:01:13;77.40;;;29.52;;
36353;SDS011;22383;51.114;13.666;2024-01-11T04:03:41;76.82;;;27.40;;
36353;SDS011;22383;51.114;13.666;2024-01-11T04:06:08;77.03;;;27.53;;
36353;SDS011;22383;51.114;13.666;2024-01-11T04:08:36;69.30;;;27.02;;
36353;SDS011;22383;51.114;13.666;2024-01-11T04:13:33;52.93;;;16.73;;
36353;SDS011;22383;51.114;13.666;2024-01-11T04:16:03;55.22;;;19.40;;
36353;SDS011;22383;51.114;13.666;2024-01-11T04:18:32;48.77;;;16.27;;
36353;SDS011;22383;51.114;13.666;2024-01-11T04:21:00;46.57;;;19.07;;
36353;SDS011;22383;51.114;13.666;2024-01-11T04:23:28;50.53;;;17.27;;
36353;SDS011;22383;51.114;13.666;2024-01-11T04:25:55;63.37;;;20.53;;
36353;SDS011;22383;51.114;13.666;2024-01-11T04:30:50;58.00;;;20.95;;
36353;SDS011;22383;51.114;13.666;2024-01-11T04:33:17;66.47;;;22.58;;
36353;SDS011;22383;51.114;13.666;2024-01-11T04:35:44;64.00;;;23.50;;
36353;SDS011;22383;51.114;13.666;2024-01-11T04:38:12;66.40;;;21.75;;
36353;SDS011;22383;51.114;13.666;2024-01-11T04:40:39;52.38;;;19.67;;
36353;SDS011;22383;51.114;13.666;2024-01-11T04:43:06;62.65;;;22.48;;
36353;SDS011;22383;51.114;13.666;2024-01-11T04:45:35;61.70;;;21.20;;
36353;SDS011;22383;51.114;13.666;2024-01-11T04:48:03;61.22;;;22.90;;
36353;SDS011;22383;51.114;13.666;2024-01-11T04:50:31;68.43;;;23.23;;
36353;SDS011;22383;51.114;13.666;2024-01-11T04:52:58;66.07;;;20.65;;
36353;SDS011;22383;51.114;13.666;2024-01-11T04:55:25;61.67;;;22.35;;
36353;SDS011;22383;51.114;13.666;2024-01-11T04:57:52;56.50;;;22.67;;
36353;SDS011;22383;51.114;13.666;2024-01-11T05:00:19;63.13;;;20.05;;
36353;SDS011;22383;51.114;13.666;2024-01-11T05:02:46;68.22;;;21.95;;
36353;SDS011;22383;51.114;13.666;2024-01-11T05:05:14;65.65;;;20.88;;
36353;SDS011;22383;51.114;13.666;2024-01-11T05:10:08;56.25;;;21.10;;
36353;SDS011;22383;51.114;13.666;2024-01-11T05:12:36;64.22;;;23.00;;
36353;SDS011;22383;51.114;13.666;2024-01-11T05:15:05;68.53;;;25.43;;
36353;SDS011;22383;51.114;13.666;2024-01-11T05:17:34;80.63;;;27.10;;
36353;SDS011;22383;51.114;13.666;2024-01-11T05:20:02;96.10;;;27.88;;
36353;SDS011;22383;51.114;13.666;2024-01-11T05:22:29;82.53;;;27.90;;
36353;SDS011;22383;51.114;13.666;2024-01-11T05:24:57;86.30;;;29.45;;
36353;SDS011;22383;51.114;13.666;2024-01-11T05:27:24;83.13;;;32.42;;
36353;SDS011;22383;51.114;13.666;2024-01-11T05:29:51;81.03;;;29.00;;
36353;SDS011;22383;51.114;13.666;2024-01-11T05:32:19;89.30;;;29.07;;
36353;SDS011;22383;51.114;13.666;2024-01-11T05:34:46;73.07;;;24.65;;
36353;SDS011;22383;51.114;13.666;2024-01-11T05:37:13;84.35;;;28.35;;
36353;SDS011;22383;51.114;13.666;2024-01-11T05:39:41;66.30;;;26.27;;
36353;SDS011;22383;51.114;13.666;2024-01-11T05:42:08;62.25;;;24.58;;
36353;SDS011;22383;51.114;13.666;2024-01-11T05:44:35;65.35;;;24.70;;
36353;SDS011;22383;51.114;13.666;2024-01-11T05:47:02;78.00;;;22.52;;
36353;SDS011;22383;51.114;13.666;2024-01-11T05:49:30;70.40;;;25.85;;
36353;SDS011;22383;51.114;13.666;2024-01-11T05:51:57;67.47;;;23.17;;
36353;SDS011;22383;51.114;13.666;2024-01-11T05:54:24;63.83;;;22.20;;
36353;SDS011;22383;51.114;13.666;2024-01-11T05:56:53;52.10;;;20.97;;
36353;SDS011;22383;51.114;13.666;2024-01-11T05:59:24;59.80;;;20.60;;
36353;SDS011;22383;51.114;13.666;2024-01-11T06:04:18;58.10;;;19.25;;
36353;SDS011;22383;51.114;13.666;2024-01-11T06:06:45;65.57;;;21.45;;
36353;SDS011;22383;51.114;13.666;2024-01-11T06:09:13;62.97;;;23.00;;
36353;SDS011;22383;51.114;13.666;2024-01-11T06:11:40;68.35;;;21.00;;
36353;SDS011;22383;51.114;13.666;2024-01-11T06:14:07;59.90;;;21.33;;
36353;SDS011;22383;51.114;13.666;2024-01-11T06:16:35;62.90;;;25.03;;
36353;SDS011;22383;51.114;13.666;2024-01-11T06:19:03;58.10;;;21.67;;
36353;SDS011;22383;51.114;13.666;2024-01-11T06:21:30;55.27;;;22.73;;
36353;SDS011;22383;51.114;13.666;2024-01-11T06:23:58;59.58;;;21.50;;
36353;SDS011;22383;51.114;13.666;2024-01-11T06:26:25;55.90;;;21.35;;
36353;SDS011;22383;51.114;13.666;2024-01-11T06:28:52;76.38;;;24.13;;
36353;SDS011;22383;51.114;13.666;2024-01-11T06:31:19;76.85;;;24.50;;
36353;SDS011;22383;51.114;13.666;2024-01-11T06:33:46;67.95;;;25.00;;
36353;SDS011;22383;51.114;13.666;2024-01-11T06:36:17;67.13;;;26.67;;
36353;SDS011;22383;51.114;13.666;2024-01-11T06:38:44;90.43;;;24.38;;
36353;SDS011;22383;51.114;13.666;2024-01-11T06:41:11;74.22;;;25.95;;
36353;SDS011;22383;51.114;13.666;2024-01-11T06:43:39;78.63;;;27.65;;
36353;SDS011;22383;51.114;13.666;2024-01-11T06:46:06;69.05;;;24.27;;
36353;SDS011;22383;51.114;13.666;2024-01-11T06:48:33;86.88;;;29.40;;
36353;SDS011;22383;51.114;13.666;2024-01-11T06:51:01;76.67;;;25.60;;
36353;SDS011;22383;51.114;13.666;2024-01-11T06:53:28;90.67;;;25.93;;
36353;SDS011;22383;51.114;13.666;2024-01-11T06:55:55;65.93;;;22.65;;
36353;SDS011;22383;51.114;13.666;2024-01-11T06:58:23;67.88;;;22.65;;
36353;SDS011;22383;51.114;13.666;2024-01-11T07:00:50;66.10;;;22.67;;
36353;SDS011;22383;51.114;13.666;2024-01-11T07:03:17;54.40;;;21.50;;
36353;SDS011;22383;51.114;13.666;2024-01-11T07:05:45;71.10;;;23.63;;
36353;SDS011;22383;51.114;13.666;2024-01-11T07:10:40;71.73;;;23.33;;
36353;SDS011;22383;51.114;13.666;2024-01-11T07:13:08;71.60;;;23.43;;
36353;SDS011;22383;51.114;13.666;2024-01-11T07:15:37;67.47;;;22.23;;
36353;SDS011;22383;51.114;13.666;2024-01-11T07:18:04;68.22;;;24.08;;
36353;SDS011;22383;51.114;13.666;2024-01-11T07:22:59;53.28;;;20.92;;
36353;SDS011;22383;51.114;13.666;2024-01-11T07:25:27;65.07;;;23.53;;
36353;SDS011;22383;51.114;13.666;2024-01-11T07:27:54;68.80;;;23.05;;
36353;SDS011;22383;51.114;13.666;2024-01-11T07:30:21;72.15;;;24.30;;
36353;SDS011;22383;51.114;13.666;2024-01-11T07:32:48;69.97;;;26.60;;
36353;SDS011;22383;51.114;13.666;2024-01-11T07:37:45;54.83;;;20.30;;
36353;SDS011;22383;51.114;13.666;2024-01-11T07:40:13;66.53;;;25.15;;
36353;SDS011;22383;51.114;13.666;2024-01-11T07:42:41;52.90;;;21.13;;
36353;SDS011;22383;51.114;13.666;2024-01-11T07:45:09;71.17;;;25.70;;
36353;SDS011;22383;51.114;13.666;2024-01-11T07:47:37;77.27;;;24.87;;
36353;SDS011;22383;51.114;13.666;2024-01-11T07:50:05;77.53;;;25.97;;
36353;SDS011;22383;51.114;13.666;2024-01-11T07:52:42;73.78;;;26.23;;
36353;SDS011;22383;51.114;13.666;2024-01-11T07:55:09;82.78;;;26.52;;
36353;SDS011;22383;51.114;13.666;2024-01-11T07:57:38;78.27;;;27.33;;
36353;SDS011;22383;51.114;13.666;2024-01-11T08:00:05;74.32;;;26.75;;
36353;SDS011;22383;51.114;13.666;2024-01-11T08:02:38;64.67;;;24.67;;
36353;SDS011;22383;51.114;13.666;2024-01-11T08:05:06;61.60;;;21.33;;
36353;SDS011;22383;51.114;13.666;2024-01-11T08:07:34;80.50;;;25.73;;
36353;SDS011;22383;51.114;13.666;2024-01-11T08:10:02;83.15;;;24.65;;
36353;SDS011;22383;51.114;13.666;2024-01-11T08:12:31;80.88;;;25.55;;
36353;SDS011;22383;51.114;13.666;2024-01-11T08:14:58;71.95;;;25.70;;
36353;SDS011;22383;51.114;13.666;2024-01-11T08:17:25;87.05;;;28.95;;
36353;SDS011;22383;51.114;13.666;2024-01-11T08:19:52;79.03;;;26.75;;
36353;SDS011;22383;51.114;13.666;2024-01-11T08:22:19;74.18;;;27.45;;
36353;SDS011;22383;51.114;13.666;2024-01-11T08:24:52;85.22;;;26.80;;
36353;SDS011;22383;51.114;13.666;2024-01-11T08:27:19;95.70;;;31.63;;
36353;SDS011;22383;51.114;13.666;2024-01-11T08:29:47;96.35;;;33.55;;
36353;SDS011;22383;51.114;13.666;2024-01-11T08:32:14;87.90;;;30.48;;
36353;SDS011;22383;51.114;13.666;2024-01-11T08:34:57;98.90;;;31.55;;
36353;SDS011;22383;51.114;13.666;2024-01-11T08:37:25;95.95;;;30.70;;
36353;SDS011;22383;51.114;13.666;2024-01-11T08:39:52;90.38;;;30.58;;
36353;SDS011;22383;51.114;13.666;2024-01-11T08:42:19;85.13;;;31.52;;
36353;SDS011;22383;51.114;13.666;2024-01-11T08:44:46;107.80;;;33.13;;
36353;SDS011;22383;51.114;13.666;2024-01-11T08:47:14;90.70;;;31.58;;
36353;SDS011;22383;51.114;13.666;2024-01-11T08:49:42;91.97;;;28.45;;
36353;SDS011;22383;51.114;13.666;2024-01-11T08:52:10;82.45;;;29.02;;
36353;SDS011;22383;51.114;13.666;2024-01-11T08:54:37;91.03;;;31.35;;
36353;SDS011;22383;51.114;13.666;2024-01-11T08:57:04;98.55;;;36.03;;
36353;SDS011;22383;51.114;13.666;2024-01-11T08:59:31;104.03;;;31.65;;
36353;SDS011;22383;51.114;13.666;2024-01-11T09:01:59;80.88;;;29.25;;
36353;SDS011;22383;51.114;13.666;2024-01-11T09:04:40;94.45;;;31.60;;
36353;SDS011;22383;51.114;13.666;2024-01-11T09:07:08;103.75;;;34.35;;
36353;SDS011;22383;51.114;13.666;2024-01-11T09:09:35;90.15;;;32.08;;
36353;SDS011;22383;51.114;13.666;2024-01-11T09:12:16;98.18;;;34.47;;
36353;SDS011;22383;51.114;13.666;2024-01-11T09:14:43;106.40;;;32.80;;
36353;SDS011;22383;51.114;13.666;2024-01-11T09:17:10;92.38;;;33.83;;
36353;SDS011;22383;51.114;13.666;2024-01-11T09:19:38;90.07;;;32.10;;
36353;SDS011;22383;51.114;13.666;2024-01-11T09:22:07;107.28;;;34.72;;
36353;SDS011;22383;51.114;13.666;2024-01-11T09:24:37;102.97;;;35.83;;
36353;SDS011;22383;51.114;13.666;2024-01-11T09:27:06;95.28;;;32.72;;
36353;SDS011;22383;51.114;13.666;2024-01-11T09:29:33;94.20;;;33.22;;
36353;SDS011;22383;51.114;13.666;2024-01-11T09:32:01;95.13;;;36.13;;
36353;SDS011;22383;51.114;13.666;2024-01-11T09:34:28;93.07;;;33.55;;
36353;SDS011;22383;51.114;13.666;2024-01-11T09:36:55;94.10;;;34.60;;
36353;SDS011;22383;51.114;13.666;2024-01-11T09:39:26;85.13;;;33.75;;
36353;SDS011;22383;51.114;13.666;2024-01-11T09:44:25;79.65;;;28.23;;
36353;SDS011;22383;51.114;13.666;2024-01-11T09:46:53;96.03;;;34.58;;
36353;SDS011;22383;51.114;13.666;2024-01-11T09:49:21;96.70;;;34.53;;
36353;SDS011;22383;51.114;13.666;2024-01-11T09:51:49;107.50;;;34.88;;
36353;SDS011;22383;51.114;13.666;2024-01-11T09:54:18;110.82;;;39.35;;
36353;SDS011;22383;51.114;13.666;2024-01-11T09:56:48;106.13;;;38.40;;
36353;SDS011;22383;51.114;13.666;2024-01-11T09:59:18;100.80;;;35.90;;
36353;SDS011;22383;51.114;13.666;2024-01-11T10:01:49;102.75;;;36.40;;
36353;SDS011;22383;51.114;13.666;2024-01-11T10:04:16;117.05;;;36.10;;
36353;SDS011;22383;51.114;13.666;2024-01-11T10:06:44;108.55;;;36.28;;
36353;SDS011;22383;51.114;13.666;2024-01-11T10:09:11;104.07;;;35.08;;
36353;SDS011;22383;51.114;13.666;2024-01-11T10:11:40;95.95;;;34.35;;
36353;SDS011;22383;51.114;13.666;2024-01-11T10:14:07;107.03;;;35.10;;
36353;SDS011;22383;51.114;13.666;2024-01-11T10:16:35;118.88;;;37.80;;
36353;SDS011;22383;51.114;13.666;2024-01-11T10:19:02;110.55;;;38.63;;
36353;SDS011;22383;51.114;13.666;2024-01-11T10:21:30;121.95;;;40.60;;
36353;SDS011;22383;51.114;13.666;2024-01-11T10:23:58;113.75;;;39.88;;
36353;SDS011;22383;51.114;13.666;2024-01-11T10:26:27;113.15;;;38.55;;
36353;SDS011;22383;51.114;13.666;2024-01-11T10:28:58;120.22;;;41.95;;
36353;SDS011;22383;51.114;13.666;2024-01-11T10:31:30;114.05;;;36.70;;
36353;SDS011;22383;51.114;13.666;2024-01-11T10:33:57;108.25;;;40.38;;
36353;SDS011;22383;51.114;13.666;2024-01-11T10:38:52;107.07;;;37.50;;
36353;SDS011;22383;51.114;13.666;2024-01-11T10:41:20;102.28;;;38.75;;
36353;SDS011;22383;51.114;13.666;2024-01-11T10:43:48;98.28;;;39.63;;
36353;SDS011;22383;51.114;13.666;2024-01-11T10:46:16;100.15;;;36.08;;
36353;SDS011;22383;51.114;13.666;2024-01-11T10:48:46;98.05;;;35.97;;
36353;SDS011;22383;51.114;13.666;2024-01-11T10:51:17;110.25;;;35.85;;
36353;SDS011;22383;51.114;13.666;2024-01-11T10:53:49;118.93;;;34.58;;
36353;SDS011;22383;51.114;13.666;2024-01-11T10:56:17;110.40;;;36.55;;
36353;SDS011;22383;51.114;13.666;2024-01-11T10:58:46;105.25;;;38.10;;
36353;SDS011;22383;51.114;13.666;2024-01-11T11:01:14;109.32;;;38.38;;
36353;SDS011;22383;51.114;13.666;2024-01-11T11:03:43;106.72;;;38.08;;
36353;SDS011;22383;51.114;13.666;2024-01-11T11:06:13;108.93;;;37.95;;
36353;SDS011;22383;51.114;13.666;2024-01-11T11:08:40;92.85;;;34.80;;
36353;SDS011;22383;51.114;13.666;2024-01-11T11:11:08;109.15;;;35.45;;
36353;SDS011;22383;51.114;13.666;2024-01-11T11:16:04;94.07;;;32.60;;
36353;SDS011;22383;51.114;13.666;2024-01-11T11:18:32;107.95;;;36.80;;
36353;SDS011;22383;51.114;13.666;2024-01-11T11:21:06;107.55;;;35.40;;
36353;SDS011;22383;51.114;13.666;2024-01-11T11:23:36;84.70;;;32.10;;
36353;SDS011;22383;51.114;13.666;2024-01-11T11:28:32;96.85;;;32.10;;
36353;SDS011;22383;51.114;13.666;2024-01-11T11:31:02;106.30;;;35.75;;
36353;SDS011;22383;51.114;13.666;2024-01-11T11:33:30;102.20;;;35.53;;
36353;SDS011;22383;51.114;13.666;2024-01-11T11:36:00;90.47;;;32.28;;
36353;SDS011;22383;51.114;13.666;2024-01-11T11:38:30;102.00;;;36.35;;
36353;SDS011;22383;51.114;13.666;2024-01-11T11:40:59;94.75;;;31.67;;
36353;SDS011;22383;51.114;13.666;2024-01-11T11:43:27;88.50;;;32.15;;
36353;SDS011;22383;51.114;13.666;2024-01-11T11:45:55;82.53;;;29.13;;
36353;SDS011;22383;51.114;13.666;2024-01-11T11:51:06;80.32;;;30.08;;
36353;SDS011;22383;51.114;13.666;2024-01-11T11:53:38;104.07;;;34.08;;
36353;SDS011;22383;51.114;13.666;2024-01-11T11:56:07;86.57;;;31.33;;
36353;SDS011;22383;51.114;13.666;2024-01-11T11:58:39;86.85;;;30.90;;
36353;SDS011;22383;51.114;13.666;2024-01-11T12:01:06;91.95;;;30.80;;
36353;SDS011;22383;51.114;13.666;2024-01-11T12:03:35;100.00;;;32.97;;
36353;SDS011;22383;51.114;13.666;2024-01-11T12:06:06;88.18;;;32.67;;
36353;SDS011;22383;51.114;13.666;2024-01-11T12:08:38;96.28;;;32.67;;
36353;SDS011;22383;51.114;13.666;2024-01-11T12:11:09;89.28;;;28.65;;
36353;SDS011;22383;51.114;13.666;2024-01-11T12:13:39;96.32;;;33.88;;
36353;SDS011;22383;51.114;13.666;2024-01-11T12:16:07;99.22;;;36.53;;
36353;SDS011;22383;51.114;13.666;2024-01-11T12:18:34;90.35;;;32.70;;
36353;SDS011;22383;51.114;13.666;2024-01-11T12:21:02;87.32;;;32.95;;
36353;SDS011;22383;51.114;13.666;2024-01-11T12:25:57;81.88;;;30.77;;
36353;SDS011;22383;51.114;13.666;2024-01-11T12:28:24;86.38;;;31.63;;
36353;SDS011;22383;51.114;13.666;2024-01-11T12:30:51;72.82;;;25.63;;
36353;SDS011;22383;51.114;13.666;2024-01-11T12:33:19;85.75;;;29.23;;
36353;SDS011;22383;51.114;13.666;2024-01-11T12:35:47;89.55;;;31.95;;
36353;SDS011;22383;51.114;13.666;2024-01-11T12:38:14;86.50;;;28.88;;
36353;SDS011;22383;51.114;13.666;2024-01-11T12:43:10;69.18;;;25.48;;
36353;SDS011;22383;51.114;13.666;2024-01-11T12:45:38;68.72;;;26.83;;
36353;SDS011;22383;51.114;13.666;2024-01-11T12:48:06;77.75;;;28.63;;
36353;SDS011;22383;51.114;13.666;2024-01-11T12:50:35;92.57;;;31.35;;
36353;SDS011;22383;51.114;13.666;2024-01-11T12:53:06;76.95;;;29.45;;
36353;SDS011;22383;51.114;13.666;2024-01-11T12:55:35;80.88;;;29.60;;
36353;SDS011;22383;51.114;13.666;2024-01-11T12:58:20;80.93;;;27.08;;
36353;SDS011;22383;51.114;13.666;2024-01-11T13:00:48;84.65;;;29.23;;
36353;SDS011;22383;51.114;13.666;2024-01-11T13:03:16;80.93;;;26.88;;
36353;SDS011;22383;51.114;13.666;2024-01-11T13:05:43;83.03;;;25.48;;
36353;SDS011;22383;51.114;13.666;2024-01-11T13:08:11;81.63;;;24.88;;
36353;SDS011;22383;51.114;13.666;2024-01-11T13:10:38;72.28;;;26.50;;
36353;SDS011;22383;51.114;13.666;2024-01-11T13:13:05;84.22;;;31.00;;
36353;SDS011;22383;51.114;13.666;2024-01-11T13:15:35;88.43;;;28.95;;
36353;SDS011;22383;51.114;13.666;2024-01-11T13:18:06;79.93;;;29.25;;
36353;SDS011;22383;51.114;13.666;2024-01-11T13:20:33;83.50;;;30.33;;
36353;SDS011;22383;51.114;13.666;2024-01-11T13:23:13;78.55;;;28.63;;
36353;SDS011;22383;51.114;13.666;2024-01-11T13:25:43;82.50;;;31.13;;
36353;SDS011;22383;51.114;13.666;2024-01-11T13:28:12;82.43;;;31.08;;
36353;SDS011;22383;51.114;13.666;2024-01-11T13:30:40;89.60;;;29.05;;
36353;SDS011;22383;51.114;13.666;2024-01-11T13:33:09;76.85;;;27.98;;
36353;SDS011;22383;51.114;13.666;2024-01-11T13:35:38;83.75;;;29.88;;
36353;SDS011;22383;51.114;13.666;2024-01-11T13:38:07;78.93;;;30.55;;
36353;SDS011;22383;51.114;13.666;2024-01-11T13:40:34;83.55;;;29.23;;
36353;SDS011;22383;51.114;13.666;2024-01-11T13:43:02;81.38;;;28.70;;
36353;SDS011;22383;51.114;13.666;2024-01-11T13:47:57;83.00;;;29.20;;
36353;SDS011;22383;51.114;13.666;2024-01-11T13:50:24;70.60;;;24.17;;
36353;SDS011;22383;51.114;13.666;2024-01-11T13:52:52;73.93;;;27.52;;
36353;SDS011;22383;51.114;13.666;2024-01-11T13:55:20;76.10;;;25.85;;
36353;SDS011;22383;51.114;13.666;2024-01-11T13:57:51;81.78;;;30.63;;
36353;SDS011;22383;51.114;13.666;2024-01-11T14:00:20;82.60;;;29.10;;
36353;SDS011;22383;51.114;13.666;2024-01-11T14:02:48;83.90;;;29.80;;
36353;SDS011;22383;51.114;13.666;2024-01-11T14:05:15;83.15;;;31.13;;
36353;SDS011;22383;51.114;13.666;2024-01-11T14:07:45;82.32;;;26.55;;
36353;SDS011;22383;51.114;13.666;2024-01-11T14:10:13;87.15;;;29.63;;
36353;SDS011;22383;51.114;13.666;2024-01-11T14:12:42;91.38;;;29.90;;
36353;SDS011;22383;51.114;13.666;2024-01-11T14:15:09;75.15;;;26.75;;
36353;SDS011;22383;51.114;13.666;2024-01-11T14:17:40;77.72;;;29.50;;
36353;SDS011;22383;51.114;13.666;2024-01-11T14:20:09;70.47;;;27.10;;
36353;SDS011;22383;51.114;13.666;2024-01-11T14:22:40;69.68;;;25.70;;
36353;SDS011;22383;51.114;13.666;2024-01-11T14:25:08;81.60;;;30.40;;
36353;SDS011;22383;51.114;13.666;2024-01-11T14:27:38;71.15;;;23.70;;
36353;SDS011;22383;51.114;13.666;2024-01-11T14:30:05;77.70;;;29.30;;
36353;SDS011;22383;51.114;13.666;2024-01-11T14:32:34;73.50;;;24.58;;
36353;SDS011;22383;51.114;13.666;2024-01-11T14:35:07;74.43;;;26.83;;
36353;SDS011;22383;51.114;13.666;2024-01-11T14:37:36;71.93;;;25.60;;
36353;SDS011;22383;51.114;13.666;2024-01-11T14:40:05;63.33;;;24.30;;
36353;SDS011;22383;51.114;13.666;2024-01-11T14:42:33;71.55;;;24.83;;
36353;SDS011;22383;51.114;13.666;2024-01-11T14:45:00;61.95;;;23.30;;
36353;SDS011;22383;51.114;13.666;2024-01-11T14:47:28;76.28;;;24.45;;
36353;SDS011;22383;51.114;13.666;2024-01-11T14:49:55;74.95;;;24.60;;
36353;SDS011;22383;51.114;13.666;2024-01-11T14:52:22;77.10;;;24.33;;
36353;SDS011;22383;51.114;13.666;2024-01-11T14:54:49;71.05;;;24.38;;
36353;SDS011;22383;51.114;13.666;2024-01-11T14:57:17;72.97;;;23.67;;
36353;SDS011;22383;51.114;13.666;2024-01-11T14:59:44;74.85;;;23.23;;
36353;SDS011;22383;51.114;13.666;2024-01-11T15:02:12;74.25;;;26.02;;
36353;SDS011;22383;51.114;13.666;2024-01-11T15:04:39;71.50;;;25.92;;